sensor_id;sensor_type;location;lat;lon;timestamp;P1;durP1;ratioP1;P2;durP2;ratioP2
63046;SDS011;62025;39.238;9.126;2023-04-08T00:00:13;6.25;;;2.40;;
63046;SDS011;62025;39.238;9.126;2023-04-08T00:02:39;2.90;;;2.28;;
63046;SDS011;62025;39.238;9.126;2023-04-08T00:05:06;3.45;;;2.20;;
63046;SDS011;62025;39.238;9.126;2023-04-08T00:07:32;3.25;;;2.10;;
63046;SDS011;62025;39.238;9.126;2023-04-08T00:09:59;2.75;;;2.10;;
63046;SDS011;62025;39.238;9.126;2023-04-08T00:12:25;3.28;;;2.30;;
63046;SDS011;62025;39.238;9.126;2023-04-08T00:14:51;2.83;;;2.13;;
63046;SDS011;62025;39.238;9.126;2023-04-08T00:17:17;4.97;;;2.15;;
63046;SDS011;62025;39.238;9.126;2023-04-08T00:19:43;5.00;;;2.20;;
63046;SDS011;62025;39.238;9.126;2023-04-08T00:22:09;8.88;;;2.30;;
63046;SDS011;62025;39.238;9.126;2023-04-08T00:24:35;2.85;;;2.22;;
63046;SDS011;62025;39.238;9.126;2023-04-08T00:27:02;8.15;;;2.38;;
63046;SDS011;62025;39.238;9.126;2023-04-08T00:29:28;4.22;;;2.38;;
63046;SDS011;62025;39.238;9.126;2023-04-08T00:31:54;4.25;;;2.13;;
63046;SDS011;62025;39.238;9.126;2023-04-08T00:34:21;3.97;;;2.10;;
63046;SDS011;62025;39.238;9.126;2023-04-08T00:36:48;3.75;;;2.40;;
63046;SDS011;62025;39.238;9.126;2023-04-08T00:39:14;4.07;;;2.38;;
63046;SDS011;62025;39.238;9.126;2023-04-08T00:41:40;6.60;;;2.40;;
63046;SDS011;62025;39.238;9.126;2023-04-08T00:44:07;3.88;;;2.60;;
63046;SDS011;62025;39.238;9.126;2023-04-08T00:46:35;3.38;;;2.30;;
63046;SDS011;62025;39.238;9.126;2023-04-08T00:49:04;3.10;;;2.78;;
63046;SDS011;62025;39.238;9.126;2023-04-08T00:51:32;3.17;;;2.65;;
63046;SDS011;62025;39.238;9.126;2023-04-08T00:56:29;2.85;;;2.42;;
63046;SDS011;62025;39.238;9.126;2023-04-08T00:58:58;5.35;;;2.78;;
63046;SDS011;62025;39.238;9.126;2023-04-08T01:01:32;3.63;;;2.53;;
63046;SDS011;62025;39.238;9.126;2023-04-08T01:04:34;3.13;;;2.50;;
63046;SDS011;62025;39.238;9.126;2023-04-08T01:07:30;3.88;;;2.80;;
63046;SDS011;62025;39.238;9.126;2023-04-08T01:10:25;4.15;;;2.63;;
63046;SDS011;62025;39.238;9.126;2023-04-08T01:12:54;4.72;;;2.70;;
63046;SDS011;62025;39.238;9.126;2023-04-08T01:15:23;3.55;;;2.75;;
63046;SDS011;62025;39.238;9.126;2023-04-08T01:17:52;3.90;;;2.45;;
63046;SDS011;62025;39.238;9.126;2023-04-08T01:20:21;3.58;;;2.60;;
63046;SDS011;62025;39.238;9.126;2023-04-08T01:25:34;4.55;;;2.53;;
63046;SDS011;62025;39.238;9.126;2023-04-08T01:28:12;4.28;;;2.38;;
63046;SDS011;62025;39.238;9.126;2023-04-08T01:30:42;3.35;;;2.55;;
63046;SDS011;62025;39.238;9.126;2023-04-08T01:33:12;5.13;;;2.33;;
63046;SDS011;62025;39.238;9.126;2023-04-08T01:35:41;2.50;;;2.30;;
63046;SDS011;62025;39.238;9.126;2023-04-08T01:38:10;3.30;;;2.10;;
63046;SDS011;62025;39.238;9.126;2023-04-08T01:40:42;5.55;;;2.42;;
63046;SDS011;62025;39.238;9.126;2023-04-08T01:43:12;3.53;;;2.33;;
63046;SDS011;62025;39.238;9.126;2023-04-08T01:45:42;3.13;;;2.55;;
63046;SDS011;62025;39.238;9.126;2023-04-08T01:48:11;3.33;;;2.20;;
63046;SDS011;62025;39.238;9.126;2023-04-08T01:50:42;2.92;;;2.42;;
63046;SDS011;62025;39.238;9.126;2023-04-08T01:53:11;5.28;;;2.25;;
63046;SDS011;62025;39.238;9.126;2023-04-08T01:55:37;3.50;;;2.15;;
63046;SDS011;62025;39.238;9.126;2023-04-08T01:58:06;4.00;;;2.45;;
63046;SDS011;62025;39.238;9.126;2023-04-08T02:00:33;2.47;;;2.27;;
63046;SDS011;62025;39.238;9.126;2023-04-08T02:03:01;3.65;;;2.70;;
63046;SDS011;62025;39.238;9.126;2023-04-08T02:07:55;5.30;;;2.60;;
63046;SDS011;62025;39.238;9.126;2023-04-08T02:10:21;4.47;;;2.40;;
63046;SDS011;62025;39.238;9.126;2023-04-08T02:12:47;4.18;;;2.30;;
63046;SDS011;62025;39.238;9.126;2023-04-08T02:15:14;3.88;;;2.20;;
63046;SDS011;62025;39.238;9.126;2023-04-08T02:17:48;3.58;;;2.50;;
63046;SDS011;62025;39.238;9.126;2023-04-08T02:20:30;3.05;;;2.35;;
63046;SDS011;62025;39.238;9.126;2023-04-08T02:23:17;6.85;;;2.25;;
63046;SDS011;62025;39.238;9.126;2023-04-08T02:25:46;3.75;;;2.35;;
63046;SDS011;62025;39.238;9.126;2023-04-08T02:28:16;5.25;;;2.45;;
63046;SDS011;62025;39.238;9.126;2023-04-08T02:30:47;3.42;;;2.17;;
63046;SDS011;62025;39.238;9.126;2023-04-08T02:33:17;3.13;;;2.50;;
63046;SDS011;62025;39.238;9.126;2023-04-08T02:35:45;2.95;;;2.30;;
63046;SDS011;62025;39.238;9.126;2023-04-08T02:40:41;3.88;;;2.30;;
63046;SDS011;62025;39.238;9.126;2023-04-08T02:43:07;3.28;;;2.30;;
63046;SDS011;62025;39.238;9.126;2023-04-08T02:45:40;3.65;;;2.45;;
63046;SDS011;62025;39.238;9.126;2023-04-08T02:48:08;3.08;;;2.25;;
63046;SDS011;62025;39.238;9.126;2023-04-08T02:50:34;3.00;;;2.25;;
63046;SDS011;62025;39.238;9.126;2023-04-08T02:53:00;3.03;;;2.40;;
63046;SDS011;62025;39.238;9.126;2023-04-08T02:55:29;4.22;;;2.42;;
63046;SDS011;62025;39.238;9.126;2023-04-08T02:57:55;6.40;;;2.38;;
63046;SDS011;62025;39.238;9.126;2023-04-08T03:00:21;4.32;;;2.72;;
63046;SDS011;62025;39.238;9.126;2023-04-08T03:02:47;3.63;;;2.60;;
63046;SDS011;62025;39.238;9.126;2023-04-08T03:05:13;3.03;;;2.63;;
63046;SDS011;62025;39.238;9.126;2023-04-08T03:07:40;3.97;;;2.88;;
63046;SDS011;62025;39.238;9.126;2023-04-08T03:10:06;6.68;;;2.80;;
63046;SDS011;62025;39.238;9.126;2023-04-08T03:12:33;5.75;;;2.90;;
63046;SDS011;62025;39.238;9.126;2023-04-08T03:14:59;4.55;;;2.53;;
63046;SDS011;62025;39.238;9.126;2023-04-08T03:17:29;6.55;;;2.72;;
63046;SDS011;62025;39.238;9.126;2023-04-08T03:19:57;3.70;;;2.47;;
63046;SDS011;62025;39.238;9.126;2023-04-08T03:22:24;3.28;;;2.90;;
63046;SDS011;62025;39.238;9.126;2023-04-08T03:24:49;3.95;;;3.10;;
63046;SDS011;62025;39.238;9.126;2023-04-08T03:27:16;7.78;;;2.78;;
63046;SDS011;62025;39.238;9.126;2023-04-08T03:29:42;4.38;;;2.85;;
63046;SDS011;62025;39.238;9.126;2023-04-08T03:32:09;6.35;;;3.00;;
63046;SDS011;62025;39.238;9.126;2023-04-08T03:34:35;5.70;;;2.80;;
63046;SDS011;62025;39.238;9.126;2023-04-08T03:37:01;4.18;;;3.08;;
63046;SDS011;62025;39.238;9.126;2023-04-08T03:39:27;3.42;;;2.90;;
63046;SDS011;62025;39.238;9.126;2023-04-08T03:41:53;4.05;;;2.88;;
63046;SDS011;62025;39.238;9.126;2023-04-08T03:44:19;5.40;;;2.78;;
63046;SDS011;62025;39.238;9.126;2023-04-08T03:46:45;4.30;;;2.80;;
63046;SDS011;62025;39.238;9.126;2023-04-08T03:49:11;5.85;;;3.53;;
63046;SDS011;62025;39.238;9.126;2023-04-08T03:51:38;4.05;;;2.97;;
63046;SDS011;62025;39.238;9.126;2023-04-08T03:54:04;3.25;;;2.72;;
63046;SDS011;62025;39.238;9.126;2023-04-08T03:56:30;4.93;;;2.60;;
63046;SDS011;62025;39.238;9.126;2023-04-08T03:58:56;4.80;;;3.03;;
63046;SDS011;62025;39.238;9.126;2023-04-08T04:01:22;7.35;;;3.28;;
63046;SDS011;62025;39.238;9.126;2023-04-08T04:03:48;4.03;;;2.92;;
63046;SDS011;62025;39.238;9.126;2023-04-08T04:06:14;5.07;;;2.95;;
63046;SDS011;62025;39.238;9.126;2023-04-08T04:08:40;7.93;;;3.00;;
63046;SDS011;62025;39.238;9.126;2023-04-08T04:11:06;4.93;;;3.17;;
63046;SDS011;62025;39.238;9.126;2023-04-08T04:13:32;4.03;;;2.90;;
63046;SDS011;62025;39.238;9.126;2023-04-08T04:15:58;3.83;;;2.90;;
63046;SDS011;62025;39.238;9.126;2023-04-08T04:18:24;4.72;;;3.15;;
63046;SDS011;62025;39.238;9.126;2023-04-08T04:20:50;4.85;;;2.75;;
63046;SDS011;62025;39.238;9.126;2023-04-08T04:23:16;5.13;;;2.90;;
63046;SDS011;62025;39.238;9.126;2023-04-08T04:25:42;4.40;;;2.83;;
63046;SDS011;62025;39.238;9.126;2023-04-08T04:28:08;3.70;;;2.72;;
63046;SDS011;62025;39.238;9.126;2023-04-08T04:30:37;5.22;;;2.60;;
63046;SDS011;62025;39.238;9.126;2023-04-08T04:33:04;4.00;;;2.83;;
63046;SDS011;62025;39.238;9.126;2023-04-08T04:35:31;2.78;;;2.50;;
63046;SDS011;62025;39.238;9.126;2023-04-08T04:37:57;3.40;;;2.50;;
63046;SDS011;62025;39.238;9.126;2023-04-08T04:40:24;3.45;;;2.50;;
63046;SDS011;62025;39.238;9.126;2023-04-08T04:42:50;3.10;;;2.35;;
63046;SDS011;62025;39.238;9.126;2023-04-08T04:45:16;4.68;;;2.55;;
63046;SDS011;62025;39.238;9.126;2023-04-08T04:47:42;5.85;;;2.70;;
63046;SDS011;62025;39.238;9.126;2023-04-08T04:50:08;4.82;;;2.30;;
63046;SDS011;62025;39.238;9.126;2023-04-08T04:52:35;3.67;;;2.83;;
63046;SDS011;62025;39.238;9.126;2023-04-08T04:55:01;5.88;;;2.80;;
63046;SDS011;62025;39.238;9.126;2023-04-08T04:57:27;3.90;;;2.45;;
63046;SDS011;62025;39.238;9.126;2023-04-08T04:59:53;3.22;;;2.45;;
63046;SDS011;62025;39.238;9.126;2023-04-08T05:02:19;3.45;;;2.33;;
63046;SDS011;62025;39.238;9.126;2023-04-08T05:04:45;6.80;;;2.67;;
63046;SDS011;62025;39.238;9.126;2023-04-08T05:07:11;4.30;;;2.70;;
63046;SDS011;62025;39.238;9.126;2023-04-08T05:09:37;4.68;;;2.55;;
63046;SDS011;62025;39.238;9.126;2023-04-08T05:12:03;6.10;;;2.55;;
63046;SDS011;62025;39.238;9.126;2023-04-08T05:14:30;4.45;;;2.47;;
63046;SDS011;62025;39.238;9.126;2023-04-08T05:16:56;4.32;;;2.92;;
63046;SDS011;62025;39.238;9.126;2023-04-08T05:19:22;5.13;;;2.67;;
63046;SDS011;62025;39.238;9.126;2023-04-08T05:21:48;6.00;;;2.50;;
63046;SDS011;62025;39.238;9.126;2023-04-08T05:24:14;3.53;;;2.70;;
63046;SDS011;62025;39.238;9.126;2023-04-08T05:26:40;3.88;;;2.40;;
63046;SDS011;62025;39.238;9.126;2023-04-08T05:29:06;4.55;;;2.55;;
63046;SDS011;62025;39.238;9.126;2023-04-08T05:31:32;5.28;;;2.70;;
63046;SDS011;62025;39.238;9.126;2023-04-08T05:33:58;6.43;;;2.85;;
63046;SDS011;62025;39.238;9.126;2023-04-08T05:36:24;3.88;;;2.90;;
63046;SDS011;62025;39.238;9.126;2023-04-08T05:38:51;9.13;;;3.05;;
63046;SDS011;62025;39.238;9.126;2023-04-08T05:41:17;4.57;;;2.78;;
63046;SDS011;62025;39.238;9.126;2023-04-08T05:43:43;5.88;;;2.97;;
63046;SDS011;62025;39.238;9.126;2023-04-08T05:46:09;6.05;;;2.78;;
63046;SDS011;62025;39.238;9.126;2023-04-08T05:48:35;4.13;;;2.80;;
63046;SDS011;62025;39.238;9.126;2023-04-08T05:51:01;4.03;;;2.92;;
63046;SDS011;62025;39.238;9.126;2023-04-08T05:53:27;4.55;;;2.92;;
63046;SDS011;62025;39.238;9.126;2023-04-08T05:55:53;3.83;;;3.13;;
63046;SDS011;62025;39.238;9.126;2023-04-08T05:58:19;6.13;;;3.08;;
63046;SDS011;62025;39.238;9.126;2023-04-08T06:00:45;5.05;;;2.72;;
63046;SDS011;62025;39.238;9.126;2023-04-08T06:03:11;5.00;;;3.25;;
63046;SDS011;62025;39.238;9.126;2023-04-08T06:05:37;5.68;;;3.38;;
63046;SDS011;62025;39.238;9.126;2023-04-08T06:08:03;4.43;;;3.00;;
63046;SDS011;62025;39.238;9.126;2023-04-08T06:10:30;5.78;;;3.03;;
63046;SDS011;62025;39.238;9.126;2023-04-08T06:12:56;7.57;;;3.60;;
63046;SDS011;62025;39.238;9.126;2023-04-08T06:15:22;4.55;;;3.40;;
63046;SDS011;62025;39.238;9.126;2023-04-08T06:17:48;5.53;;;3.05;;
63046;SDS011;62025;39.238;9.126;2023-04-08T06:20:14;4.38;;;2.80;;
63046;SDS011;62025;39.238;9.126;2023-04-08T06:22:40;5.53;;;3.17;;
63046;SDS011;62025;39.238;9.126;2023-04-08T06:25:06;5.93;;;3.20;;
63046;SDS011;62025;39.238;9.126;2023-04-08T06:27:33;9.63;;;3.92;;
63046;SDS011;62025;39.238;9.126;2023-04-08T06:29:59;4.25;;;3.03;;
63046;SDS011;62025;39.238;9.126;2023-04-08T06:32:25;6.80;;;3.25;;
63046;SDS011;62025;39.238;9.126;2023-04-08T06:34:51;7.32;;;3.55;;
63046;SDS011;62025;39.238;9.126;2023-04-08T06:37:17;6.50;;;3.80;;
63046;SDS011;62025;39.238;9.126;2023-04-08T06:39:43;8.02;;;5.25;;
63046;SDS011;62025;39.238;9.126;2023-04-08T06:42:09;10.05;;;4.20;;
63046;SDS011;62025;39.238;9.126;2023-04-08T06:45:01;7.55;;;3.72;;
63046;SDS011;62025;39.238;9.126;2023-04-08T06:47:26;5.00;;;3.50;;
63046;SDS011;62025;39.238;9.126;2023-04-08T06:49:53;9.02;;;4.72;;
63046;SDS011;62025;39.238;9.126;2023-04-08T06:52:19;8.88;;;4.05;;
63046;SDS011;62025;39.238;9.126;2023-04-08T06:54:45;5.97;;;3.80;;
63046;SDS011;62025;39.238;9.126;2023-04-08T06:57:11;6.50;;;3.55;;
63046;SDS011;62025;39.238;9.126;2023-04-08T06:59:37;5.72;;;3.13;;
63046;SDS011;62025;39.238;9.126;2023-04-08T07:02:03;5.35;;;3.80;;
63046;SDS011;62025;39.238;9.126;2023-04-08T07:04:29;5.53;;;3.53;;
63046;SDS011;62025;39.238;9.126;2023-04-08T07:06:55;9.55;;;3.80;;
63046;SDS011;62025;39.238;9.126;2023-04-08T07:09:21;6.63;;;3.90;;
63046;SDS011;62025;39.238;9.126;2023-04-08T07:11:48;8.27;;;3.50;;
63046;SDS011;62025;39.238;9.126;2023-04-08T07:14:14;7.63;;;3.80;;
63046;SDS011;62025;39.238;9.126;2023-04-08T07:16:40;4.25;;;3.58;;
63046;SDS011;62025;39.238;9.126;2023-04-08T07:19:06;5.13;;;3.55;;
63046;SDS011;62025;39.238;9.126;2023-04-08T07:21:32;6.60;;;3.50;;
63046;SDS011;62025;39.238;9.126;2023-04-08T07:23:58;4.85;;;3.20;;
63046;SDS011;62025;39.238;9.126;2023-04-08T07:26:24;4.97;;;3.50;;
63046;SDS011;62025;39.238;9.126;2023-04-08T07:28:52;6.93;;;3.87;;
63046;SDS011;62025;39.238;9.126;2023-04-08T07:31:18;3.97;;;3.58;;
63046;SDS011;62025;39.238;9.126;2023-04-08T07:33:44;5.97;;;3.63;;
63046;SDS011;62025;39.238;9.126;2023-04-08T07:36:11;5.05;;;3.15;;
63046;SDS011;62025;39.238;9.126;2023-04-08T07:38:38;5.63;;;3.63;;
63046;SDS011;62025;39.238;9.126;2023-04-08T07:41:04;6.00;;;3.00;;
63046;SDS011;62025;39.238;9.126;2023-04-08T07:43:31;5.15;;;3.25;;
63046;SDS011;62025;39.238;9.126;2023-04-08T07:46:01;4.13;;;3.05;;
63046;SDS011;62025;39.238;9.126;2023-04-08T07:48:29;5.35;;;3.22;;
63046;SDS011;62025;39.238;9.126;2023-04-08T07:50:56;4.60;;;2.88;;
63046;SDS011;62025;39.238;9.126;2023-04-08T07:53:22;7.95;;;2.85;;
63046;SDS011;62025;39.238;9.126;2023-04-08T07:55:50;6.60;;;3.63;;
63046;SDS011;62025;39.238;9.126;2023-04-08T07:58:16;5.68;;;3.00;;
63046;SDS011;62025;39.238;9.126;2023-04-08T08:00:42;3.67;;;2.08;;
63046;SDS011;62025;39.238;9.126;2023-04-08T08:03:08;3.97;;;2.05;;
63046;SDS011;62025;39.238;9.126;2023-04-08T08:05:34;2.90;;;1.60;;
63046;SDS011;62025;39.238;9.126;2023-04-08T08:08:01;2.63;;;1.58;;
63046;SDS011;62025;39.238;9.126;2023-04-08T08:10:28;2.67;;;1.58;;
63046;SDS011;62025;39.238;9.126;2023-04-08T08:12:54;3.90;;;1.83;;
63046;SDS011;62025;39.238;9.126;2023-04-08T08:15:20;4.07;;;1.77;;
63046;SDS011;62025;39.238;9.126;2023-04-08T08:17:46;3.42;;;2.20;;
63046;SDS011;62025;39.238;9.126;2023-04-08T08:20:12;6.53;;;2.30;;
63046;SDS011;62025;39.238;9.126;2023-04-08T08:22:38;4.68;;;2.65;;
63046;SDS011;62025;39.238;9.126;2023-04-08T08:25:05;5.60;;;2.60;;
63046;SDS011;62025;39.238;9.126;2023-04-08T08:27:33;3.13;;;2.05;;
63046;SDS011;62025;39.238;9.126;2023-04-08T08:29:59;3.53;;;1.90;;
63046;SDS011;62025;39.238;9.126;2023-04-08T08:32:25;4.05;;;2.15;;
63046;SDS011;62025;39.238;9.126;2023-04-08T08:34:51;3.58;;;1.70;;
63046;SDS011;62025;39.238;9.126;2023-04-08T08:37:17;2.50;;;1.60;;
63046;SDS011;62025;39.238;9.126;2023-04-08T08:39:43;2.63;;;1.40;;
63046;SDS011;62025;39.238;9.126;2023-04-08T08:42:19;1.83;;;1.27;;
63046;SDS011;62025;39.238;9.126;2023-04-08T08:44:48;2.65;;;1.40;;
63046;SDS011;62025;39.238;9.126;2023-04-08T08:47:15;2.38;;;1.50;;
63046;SDS011;62025;39.238;9.126;2023-04-08T08:49:41;2.92;;;1.60;;
63046;SDS011;62025;39.238;9.126;2023-04-08T08:52:08;2.55;;;1.58;;
63046;SDS011;62025;39.238;9.126;2023-04-08T08:54:35;2.35;;;1.60;;
63046;SDS011;62025;39.238;9.126;2023-04-08T08:57:02;3.97;;;1.58;;
63046;SDS011;62025;39.238;9.126;2023-04-08T08:59:28;3.20;;;1.58;;
63046;SDS011;62025;39.238;9.126;2023-04-08T09:01:54;2.08;;;1.83;;
63046;SDS011;62025;39.238;9.126;2023-04-08T09:04:20;4.50;;;2.08;;
63046;SDS011;62025;39.238;9.126;2023-04-08T09:06:47;3.65;;;2.10;;
63046;SDS011;62025;39.238;9.126;2023-04-08T09:09:16;2.85;;;1.95;;
63046;SDS011;62025;39.238;9.126;2023-04-08T09:11:45;3.53;;;1.90;;
63046;SDS011;62025;39.238;9.126;2023-04-08T09:14:24;4.10;;;2.03;;
63046;SDS011;62025;39.238;9.126;2023-04-08T09:19:17;3.60;;;2.13;;
63046;SDS011;62025;39.238;9.126;2023-04-08T09:21:43;5.53;;;2.00;;
63046;SDS011;62025;39.238;9.126;2023-04-08T09:24:27;4.55;;;2.00;;
63046;SDS011;62025;39.238;9.126;2023-04-08T09:26:54;4.40;;;1.90;;
63046;SDS011;62025;39.238;9.126;2023-04-08T09:29:22;4.80;;;2.30;;
63046;SDS011;62025;39.238;9.126;2023-04-08T09:31:57;4.32;;;1.80;;
63046;SDS011;62025;39.238;9.126;2023-04-08T09:34:25;3.78;;;1.80;;
63046;SDS011;62025;39.238;9.126;2023-04-08T09:36:53;3.70;;;1.60;;
63046;SDS011;62025;39.238;9.126;2023-04-08T09:39:20;2.08;;;1.50;;
63046;SDS011;62025;39.238;9.126;2023-04-08T09:41:47;1.63;;;1.48;;
63046;SDS011;62025;39.238;9.126;2023-04-08T09:44:16;3.28;;;1.70;;
63046;SDS011;62025;39.238;9.126;2023-04-08T09:57:45;4.53;;;1.45;;
63046;SDS011;62025;39.238;9.126;2023-04-08T10:00:43;3.05;;;1.80;;
63046;SDS011;62025;39.238;9.126;2023-04-08T10:05:40;3.25;;;1.80;;
63046;SDS011;62025;39.238;9.126;2023-04-08T10:10:35;2.88;;;1.60;;
63046;SDS011;62025;39.238;9.126;2023-04-08T10:13:04;4.78;;;1.85;;
63046;SDS011;62025;39.238;9.126;2023-04-08T10:15:35;2.90;;;1.70;;
63046;SDS011;62025;39.238;9.126;2023-04-08T10:23:08;2.28;;;1.42;;
63046;SDS011;62025;39.238;9.126;2023-04-08T10:25:47;1.58;;;1.48;;
63046;SDS011;62025;39.238;9.126;2023-04-08T10:33:20;2.58;;;1.60;;
63046;SDS011;62025;39.238;9.126;2023-04-08T10:38:41;2.42;;;2.00;;
63046;SDS011;62025;39.238;9.126;2023-04-08T10:41:10;8.80;;;2.00;;
63046;SDS011;62025;39.238;9.126;2023-04-08T10:43:45;2.00;;;1.80;;
63046;SDS011;62025;39.238;9.126;2023-04-08T10:46:11;5.05;;;1.70;;
63046;SDS011;62025;39.238;9.126;2023-04-08T10:48:38;3.63;;;1.63;;
63046;SDS011;62025;39.238;9.126;2023-04-08T10:51:04;2.17;;;1.65;;
63046;SDS011;62025;39.238;9.126;2023-04-08T10:53:34;4.75;;;1.90;;
63046;SDS011;62025;39.238;9.126;2023-04-08T10:56:02;2.58;;;1.83;;
63046;SDS011;62025;39.238;9.126;2023-04-08T11:01:16;3.15;;;1.70;;
63046;SDS011;62025;39.238;9.126;2023-04-08T11:03:43;3.63;;;2.10;;
63046;SDS011;62025;39.238;9.126;2023-04-08T11:06:09;2.75;;;1.70;;
63046;SDS011;62025;39.238;9.126;2023-04-08T11:08:36;4.07;;;1.83;;
63046;SDS011;62025;39.238;9.126;2023-04-08T11:11:03;2.17;;;1.73;;
63046;SDS011;62025;39.238;9.126;2023-04-08T11:13:33;2.08;;;1.70;;
63046;SDS011;62025;39.238;9.126;2023-04-08T11:16:02;3.60;;;1.90;;
63046;SDS011;62025;39.238;9.126;2023-04-08T11:18:30;2.38;;;1.40;;
63046;SDS011;62025;39.238;9.126;2023-04-08T11:20:56;3.80;;;1.95;;
63046;SDS011;62025;39.238;9.126;2023-04-08T11:23:26;4.55;;;1.67;;
63046;SDS011;62025;39.238;9.126;2023-04-08T11:25:52;3.05;;;1.58;;
63046;SDS011;62025;39.238;9.126;2023-04-08T11:28:18;2.78;;;1.55;;
63046;SDS011;62025;39.238;9.126;2023-04-08T11:30:45;3.47;;;2.35;;
63046;SDS011;62025;39.238;9.126;2023-04-08T11:33:12;4.22;;;1.63;;
63046;SDS011;62025;39.238;9.126;2023-04-08T11:35:42;5.07;;;1.77;;
63046;SDS011;62025;39.238;9.126;2023-04-08T11:38:09;4.65;;;1.90;;
63046;SDS011;62025;39.238;9.126;2023-04-08T11:40:36;2.38;;;1.70;;
63046;SDS011;62025;39.238;9.126;2023-04-08T11:43:09;2.08;;;1.40;;
63046;SDS011;62025;39.238;9.126;2023-04-08T11:45:37;1.80;;;1.30;;
63046;SDS011;62025;39.238;9.126;2023-04-08T11:48:08;2.45;;;1.33;;
63046;SDS011;62025;39.238;9.126;2023-04-08T11:50:35;2.40;;;1.42;;
63046;SDS011;62025;39.238;9.126;2023-04-08T11:53:01;3.03;;;1.52;;
63046;SDS011;62025;39.238;9.126;2023-04-08T11:55:28;3.90;;;1.50;;
63046;SDS011;62025;39.238;9.126;2023-04-08T11:58:01;2.35;;;1.15;;
63046;SDS011;62025;39.238;9.126;2023-04-08T12:00:30;2.47;;;1.50;;
63046;SDS011;62025;39.238;9.126;2023-04-08T12:02:57;2.17;;;1.50;;
63046;SDS011;62025;39.238;9.126;2023-04-08T12:05:23;2.75;;;1.20;;
63046;SDS011;62025;39.238;9.126;2023-04-08T12:07:49;2.38;;;1.30;;
63046;SDS011;62025;39.238;9.126;2023-04-08T12:10:15;3.05;;;1.33;;
63046;SDS011;62025;39.238;9.126;2023-04-08T12:12:41;3.45;;;1.30;;
63046;SDS011;62025;39.238;9.126;2023-04-08T12:15:08;2.95;;;1.00;;
63046;SDS011;62025;39.238;9.126;2023-04-08T12:17:35;4.32;;;1.55;;
63046;SDS011;62025;39.238;9.126;2023-04-08T12:20:03;2.33;;;1.20;;
63046;SDS011;62025;39.238;9.126;2023-04-08T12:22:30;2.65;;;1.40;;
63046;SDS011;62025;39.238;9.126;2023-04-08T12:24:56;3.47;;;1.40;;
63046;SDS011;62025;39.238;9.126;2023-04-08T12:27:22;1.88;;;1.30;;
63046;SDS011;62025;39.238;9.126;2023-04-08T12:29:49;3.88;;;1.50;;
63046;SDS011;62025;39.238;9.126;2023-04-08T12:32:16;3.83;;;1.60;;
63046;SDS011;62025;39.238;9.126;2023-04-08T12:34:42;2.13;;;1.30;;
63046;SDS011;62025;39.238;9.126;2023-04-08T12:37:08;2.10;;;1.30;;
63046;SDS011;62025;39.238;9.126;2023-04-08T12:39:34;2.38;;;1.20;;
63046;SDS011;62025;39.238;9.126;2023-04-08T12:42:00;3.70;;;1.58;;
63046;SDS011;62025;39.238;9.126;2023-04-08T12:44:27;3.10;;;1.50;;
63046;SDS011;62025;39.238;9.126;2023-04-08T12:46:53;5.05;;;1.40;;
63046;SDS011;62025;39.238;9.126;2023-04-08T12:49:19;6.40;;;1.98;;
63046;SDS011;62025;39.238;9.126;2023-04-08T12:51:45;3.60;;;1.20;;
63046;SDS011;62025;39.238;9.126;2023-04-08T12:54:11;1.48;;;1.10;;
63046;SDS011;62025;39.238;9.126;2023-04-08T12:56:37;3.00;;;1.05;;
63046;SDS011;62025;39.238;9.126;2023-04-08T12:59:03;2.58;;;1.30;;
63046;SDS011;62025;39.238;9.126;2023-04-08T13:01:29;4.00;;;1.30;;
63046;SDS011;62025;39.238;9.126;2023-04-08T13:03:55;1.48;;;1.00;;
63046;SDS011;62025;39.238;9.126;2023-04-08T13:06:21;7.63;;;1.23;;
63046;SDS011;62025;39.238;9.126;2023-04-08T13:08:47;2.33;;;1.30;;
63046;SDS011;62025;39.238;9.126;2023-04-08T13:11:14;2.85;;;1.50;;
63046;SDS011;62025;39.238;9.126;2023-04-08T13:13:40;4.00;;;1.25;;
63046;SDS011;62025;39.238;9.126;2023-04-08T13:16:06;5.07;;;1.55;;
63046;SDS011;62025;39.238;9.126;2023-04-08T13:18:32;1.50;;;0.98;;
63046;SDS011;62025;39.238;9.126;2023-04-08T13:20:58;2.08;;;1.00;;
63046;SDS011;62025;39.238;9.126;2023-04-08T13:23:24;6.18;;;1.98;;
63046;SDS011;62025;39.238;9.126;2023-04-08T13:25:50;2.63;;;0.90;;
63046;SDS011;62025;39.238;9.126;2023-04-08T13:28:16;10.93;;;1.10;;
63046;SDS011;62025;39.238;9.126;2023-04-08T13:30:42;4.70;;;1.17;;
63046;SDS011;62025;39.238;9.126;2023-04-08T13:33:08;1.45;;;0.93;;
63046;SDS011;62025;39.238;9.126;2023-04-08T13:35:34;2.05;;;0.95;;
63046;SDS011;62025;39.238;9.126;2023-04-08T13:38:00;1.30;;;0.90;;
63046;SDS011;62025;39.238;9.126;2023-04-08T13:40:26;1.70;;;1.02;;
63046;SDS011;62025;39.238;9.126;2023-04-08T13:42:52;1.08;;;0.80;;
63046;SDS011;62025;39.238;9.126;2023-04-08T13:45:19;2.30;;;0.95;;
63046;SDS011;62025;39.238;9.126;2023-04-08T13:47:45;3.45;;;1.27;;
63046;SDS011;62025;39.238;9.126;2023-04-08T13:50:11;1.35;;;0.82;;
63046;SDS011;62025;39.238;9.126;2023-04-08T13:52:37;2.05;;;0.90;;
63046;SDS011;62025;39.238;9.126;2023-04-08T13:55:03;1.33;;;0.93;;
63046;SDS011;62025;39.238;9.126;2023-04-08T13:57:30;1.10;;;1.00;;
63046;SDS011;62025;39.238;9.126;2023-04-08T13:59:56;2.83;;;1.10;;
63046;SDS011;62025;39.238;9.126;2023-04-08T14:02:22;5.78;;;1.00;;
63046;SDS011;62025;39.238;9.126;2023-04-08T14:04:48;1.98;;;1.00;;
63046;SDS011;62025;39.238;9.126;2023-04-08T14:07:14;3.28;;;1.10;;
63046;SDS011;62025;39.238;9.126;2023-04-08T14:09:40;2.28;;;0.80;;
63046;SDS011;62025;39.238;9.126;2023-04-08T14:12:06;4.28;;;0.95;;
63046;SDS011;62025;39.238;9.126;2023-04-08T14:14:32;3.80;;;1.20;;
63046;SDS011;62025;39.238;9.126;2023-04-08T14:16:58;3.28;;;1.35;;
63046;SDS011;62025;39.238;9.126;2023-04-08T14:19:24;2.58;;;1.17;;
63046;SDS011;62025;39.238;9.126;2023-04-08T14:21:50;1.95;;;1.05;;
63046;SDS011;62025;39.238;9.126;2023-04-08T14:24:16;1.23;;;0.80;;
63046;SDS011;62025;39.238;9.126;2023-04-08T14:26:42;2.55;;;1.10;;
63046;SDS011;62025;39.238;9.126;2023-04-08T14:29:08;4.43;;;1.20;;
63046;SDS011;62025;39.238;9.126;2023-04-08T14:31:34;1.10;;;1.00;;
63046;SDS011;62025;39.238;9.126;2023-04-08T14:34:01;10.20;;;1.15;;
63046;SDS011;62025;39.238;9.126;2023-04-08T14:36:27;3.67;;;1.10;;
63046;SDS011;62025;39.238;9.126;2023-04-08T14:38:53;1.48;;;0.98;;
63046;SDS011;62025;39.238;9.126;2023-04-08T14:41:20;1.05;;;0.80;;
63046;SDS011;62025;39.238;9.126;2023-04-08T14:43:46;2.33;;;1.00;;
63046;SDS011;62025;39.238;9.126;2023-04-08T14:46:13;2.47;;;1.10;;
63046;SDS011;62025;39.238;9.126;2023-04-08T14:48:40;3.63;;;1.02;;
63046;SDS011;62025;39.238;9.126;2023-04-08T14:51:06;2.60;;;0.98;;
63046;SDS011;62025;39.238;9.126;2023-04-08T14:53:32;1.48;;;0.90;;
63046;SDS011;62025;39.238;9.126;2023-04-08T14:55:58;3.67;;;1.15;;
63046;SDS011;62025;39.238;9.126;2023-04-08T14:58:25;3.00;;;1.15;;
63046;SDS011;62025;39.238;9.126;2023-04-08T15:00:51;3.65;;;1.10;;
63046;SDS011;62025;39.238;9.126;2023-04-08T15:03:17;1.92;;;0.95;;
63046;SDS011;62025;39.238;9.126;2023-04-08T15:05:54;2.13;;;1.00;;
63046;SDS011;62025;39.238;9.126;2023-04-08T15:08:20;5.07;;;1.05;;
63046;SDS011;62025;39.238;9.126;2023-04-08T15:10:46;3.22;;;1.10;;
63046;SDS011;62025;39.238;9.126;2023-04-08T15:13:12;4.25;;;1.42;;
63046;SDS011;62025;39.238;9.126;2023-04-08T15:15:38;3.25;;;1.30;;
63046;SDS011;62025;39.238;9.126;2023-04-08T15:18:04;3.00;;;1.25;;
63046;SDS011;62025;39.238;9.126;2023-04-08T15:20:30;2.75;;;1.13;;
63046;SDS011;62025;39.238;9.126;2023-04-08T15:22:56;4.57;;;1.27;;
63046;SDS011;62025;39.238;9.126;2023-04-08T15:25:22;3.40;;;1.13;;
63046;SDS011;62025;39.238;9.126;2023-04-08T15:27:48;1.88;;;1.10;;
63046;SDS011;62025;39.238;9.126;2023-04-08T15:30:14;2.15;;;1.27;;
63046;SDS011;62025;39.238;9.126;2023-04-08T15:32:41;3.30;;;1.50;;